createdAt,value
2022-09-03T00:01:05.276Z,4.55
2022-09-03T00:03:44.363Z,4.72
2022-09-03T00:06:20.805Z,6.00
2022-09-03T00:09:31.023Z,6.28
2022-09-03T00:12:16.617Z,7.53
2022-09-03T00:14:53.071Z,6.78
2022-09-03T00:17:25.597Z,7.35
2022-09-03T00:20:22.658Z,6.65
2022-09-03T00:22:54.244Z,7.05
2022-09-03T00:25:34.360Z,8.75
2022-09-03T00:28:04.950Z,7.68
2022-09-03T00:30:33.941Z,8.82
2022-09-03T00:33:10.889Z,8.18
2022-09-03T00:35:49.978Z,8.40
2022-09-03T00:38:16.930Z,9.90
2022-09-03T00:40:59.908Z,9.07
2022-09-03T00:43:38.866Z,8.80
2022-09-03T00:46:10.287Z,8.82
2022-09-03T00:48:56.116Z,9.32
2022-09-03T00:51:39.508Z,9.52
2022-09-03T00:54:30.663Z,9.32
2022-09-03T00:57:25.832Z,12.00
2022-09-03T00:59:57.667Z,9.68
2022-09-03T01:02:57.831Z,10.70
2022-09-03T01:05:31.995Z,10.80
2022-09-03T01:08:08.436Z,10.27
2022-09-03T01:10:57.114Z,10.48
2022-09-03T01:13:45.797Z,10.55
2022-09-03T01:16:15.497Z,9.93
2022-09-03T01:18:57.098Z,10.68
2022-09-03T01:21:43.859Z,10.30
2022-09-03T01:24:59.082Z,10.57
2022-09-03T01:27:44.851Z,10.80
2022-09-03T01:30:18.679Z,11.02
2022-09-03T01:33:27.235Z,11.73
2022-09-03T01:35:58.603Z,11.90
2022-09-03T01:39:02.119Z,11.38
2022-09-03T01:42:09.743Z,11.95
2022-09-03T01:45:07.857Z,12.55
2022-09-03T01:47:49.755Z,12.05
2022-09-03T01:50:41.264Z,13.25
2022-09-03T01:53:33.083Z,12.15
2022-09-03T01:56:18.023Z,12.93
2022-09-03T01:58:48.676Z,12.43
2022-09-03T02:01:27.031Z,14.13
2022-09-03T02:03:59.756Z,15.15
2022-09-03T02:08:59.506Z,14.98
2022-09-03T02:11:26.746Z,15.45
2022-09-03T02:14:00.507Z,16.98
2022-09-03T02:16:33.256Z,16.13
2022-09-03T02:19:04.356Z,16.63
2022-09-03T02:21:37.432Z,15.98
2022-09-03T02:24:05.363Z,16.48
2022-09-03T02:26:32.281Z,16.15
2022-09-03T02:29:01.380Z,16.30
2022-09-03T02:31:29.081Z,16.02
2022-09-03T02:33:58.021Z,15.93
2022-09-03T02:36:41.153Z,17.85
2022-09-03T02:39:08.181Z,19.02
2022-09-03T02:41:35.284Z,17.17
2022-09-03T02:44:17.464Z,18.48
2022-09-03T02:46:55.839Z,17.75
2022-09-03T02:49:22.725Z,18.50
2022-09-03T02:51:49.764Z,18.48
2022-09-03T02:54:20.915Z,17.77
2022-09-03T02:56:49.948Z,18.38
2022-09-03T02:59:18.147Z,18.02
2022-09-03T03:01:46.435Z,17.92
2022-09-03T03:04:14.031Z,17.60
2022-09-03T03:06:40.820Z,18.73
2022-09-03T03:09:08.759Z,18.52
2022-09-03T03:11:37.228Z,19.33
2022-09-03T03:14:04.163Z,17.73
2022-09-03T03:16:30.926Z,17.63
2022-09-03T03:18:58.543Z,17.90
2022-09-03T03:21:25.384Z,17.38
2022-09-03T03:23:52.243Z,17.30
2022-09-03T03:26:21.566Z,17.17
2022-09-03T03:28:49.486Z,17.92
2022-09-03T03:31:21.538Z,19.27
2022-09-03T03:33:59.593Z,17.88
2022-09-03T03:36:29.807Z,17.00
2022-09-03T03:38:58.729Z,16.15
2022-09-03T03:41:34.294Z,16.58
2022-09-03T03:44:03.825Z,15.95
2022-09-03T03:46:50.934Z,17.50
2022-09-03T03:49:21.062Z,14.88
2022-09-03T03:51:48.163Z,15.00
2022-09-03T03:54:17.562Z,15.15
2022-09-03T03:56:44.653Z,15.40
2022-09-03T03:59:17.669Z,16.23
2022-09-03T04:01:44.588Z,15.10
2022-09-03T04:04:11.495Z,17.35
2022-09-03T04:06:38.270Z,16.40
2022-09-03T04:09:05.081Z,15.57
2022-09-03T04:11:32.104Z,13.68
2022-09-03T04:13:58.839Z,14.27
2022-09-03T04:16:29.265Z,14.00
2022-09-03T04:18:57.069Z,14.18
2022-09-03T04:21:28.890Z,15.10
2022-09-03T04:23:56.499Z,15.77
2022-09-03T04:26:26.292Z,14.68
2022-09-03T04:28:53.223Z,14.50
2022-09-03T04:31:21.073Z,15.57
2022-09-03T04:33:48.090Z,17.58
2022-09-03T04:36:17.390Z,17.05
2022-09-03T04:38:46.913Z,19.02
2022-09-03T04:41:24.967Z,19.25
2022-09-03T04:43:53.211Z,21.38
2022-09-03T04:46:21.662Z,19.38
2022-09-03T04:48:52.996Z,19.23
2022-09-03T04:51:25.265Z,20.13
2022-09-03T04:53:57.310Z,18.65
2022-09-03T04:56:27.368Z,18.58
2022-09-03T04:58:57.263Z,18.67
2022-09-03T05:01:27.152Z,18.85
2022-09-03T05:03:55.795Z,19.20
2022-09-03T05:06:22.768Z,17.92
2022-09-03T05:08:50.878Z,19.38
2022-09-03T05:11:18.214Z,18.52
2022-09-03T05:13:49.227Z,18.80
2022-09-03T05:16:17.360Z,23.95
2022-09-03T05:18:45.217Z,20.10
2022-09-03T05:21:14.924Z,20.95
2022-09-03T05:23:44.420Z,20.58
2022-09-03T05:26:15.595Z,22.55
2022-09-03T05:28:43.293Z,21.30
2022-09-03T05:31:12.811Z,21.33
2022-09-03T05:33:45.035Z,23.52
2022-09-03T05:36:14.545Z,24.33
2022-09-03T05:38:41.341Z,25.00
2022-09-03T05:41:10.891Z,24.23
2022-09-03T05:43:38.164Z,25.33
2022-09-03T05:46:14.316Z,25.95
2022-09-03T05:48:41.684Z,26.60
2022-09-03T05:51:16.533Z,26.02
2022-09-03T05:53:46.378Z,27.17
2022-09-03T05:56:18.001Z,26.77
2022-09-03T05:58:47.903Z,27.48
2022-09-03T06:01:20.185Z,28.55
2022-09-03T06:03:49.110Z,30.50
2022-09-03T06:06:16.180Z,29.95
2022-09-03T06:08:45.048Z,30.92
2022-09-03T06:11:12.056Z,32.13
2022-09-03T06:13:38.814Z,30.80
2022-09-03T06:16:07.786Z,32.20
2022-09-03T06:18:34.765Z,32.63
2022-09-03T06:21:06.710Z,32.90
2022-09-03T06:23:36.279Z,31.38
2022-09-03T06:26:13.552Z,32.83
2022-09-03T06:28:43.633Z,37.10
2022-09-03T06:31:15.759Z,34.30
2022-09-03T06:33:43.276Z,32.53
2022-09-03T06:36:13.576Z,32.55
2022-09-03T06:38:40.772Z,30.13
2022-09-03T06:41:21.419Z,29.80
2022-09-03T06:43:49.381Z,31.55
2022-09-03T06:46:19.203Z,32.40
2022-09-03T06:48:47.470Z,33.60
2022-09-03T06:51:19.435Z,34.45
2022-09-03T06:53:52.522Z,32.75
2022-09-03T06:56:29.207Z,31.23
2022-09-03T06:59:32.207Z,29.33
2022-09-03T07:02:01.060Z,29.67
2022-09-03T07:04:27.959Z,31.08
2022-09-03T07:06:55.994Z,28.52
2022-09-03T07:09:22.868Z,27.50
2022-09-03T07:11:49.968Z,28.02
2022-09-03T07:14:20.493Z,28.05
2022-09-03T07:16:49.393Z,30.10
2022-09-03T07:19:16.661Z,32.33
2022-09-03T07:21:48.848Z,29.58
2022-09-03T07:24:17.019Z,30.65
2022-09-03T07:26:48.922Z,28.77
2022-09-03T07:29:20.662Z,28.65
2022-09-03T07:31:51.949Z,29.25
2022-09-03T07:34:19.848Z,27.40
2022-09-03T07:36:50.158Z,26.50
2022-09-03T07:39:18.406Z,23.05
2022-09-03T07:41:46.925Z,23.38
2022-09-03T07:44:16.432Z,21.50
2022-09-03T07:46:45.705Z,21.50
2022-09-03T07:49:12.607Z,20.80
2022-09-03T07:51:40.024Z,19.27
2022-09-03T07:54:10.174Z,18.52
2022-09-03T07:56:38.445Z,17.70
2022-09-03T07:59:06.272Z,19.15
2022-09-03T08:01:34.344Z,21.08
2022-09-03T08:04:02.310Z,21.65
2022-09-03T08:06:30.828Z,21.50
2022-09-03T08:09:05.094Z,19.33
2022-09-03T08:11:36.724Z,17.95
2022-09-03T08:14:08.924Z,17.70
2022-09-03T08:16:38.556Z,16.80
2022-09-03T08:19:05.785Z,16.05
2022-09-03T08:21:32.653Z,16.98
2022-09-03T08:24:06.907Z,16.02
2022-09-03T08:26:35.846Z,14.95
2022-09-03T08:29:03.865Z,14.23
2022-09-03T08:31:32.595Z,14.00
2022-09-03T08:34:07.037Z,14.52
2022-09-03T08:36:36.620Z,10.35
2022-09-03T08:39:12.367Z,11.07
2022-09-03T08:41:51.278Z,10.35
2022-09-03T08:44:33.447Z,8.65
2022-09-03T08:47:14.765Z,8.85
2022-09-03T08:49:55.652Z,9.30
2022-09-03T08:52:32.679Z,8.32
2022-09-03T08:55:20.678Z,7.93
2022-09-03T08:57:50.703Z,9.02
2022-09-03T09:00:19.302Z,7.88
2022-09-03T09:02:56.837Z,7.65
2022-09-03T09:05:36.677Z,7.32
2022-09-03T09:08:18.215Z,6.97
2022-09-03T09:10:49.376Z,9.63
2022-09-03T09:13:38.741Z,7.63
2022-09-03T09:16:15.831Z,7.65
2022-09-03T09:19:05.668Z,5.97
2022-09-03T09:21:46.357Z,4.82
2022-09-03T09:24:26.783Z,4.57
2022-09-03T09:26:59.500Z,5.18
2022-09-03T09:29:29.605Z,6.05
2022-09-03T09:31:57.151Z,5.45
2022-09-03T09:34:24.269Z,5.20
2022-09-03T09:36:53.414Z,6.50
2022-09-03T09:39:21.093Z,4.53
2022-09-03T09:42:08.471Z,4.70
2022-09-03T09:44:41.697Z,5.63
2022-09-03T09:47:12.154Z,4.95
2022-09-03T09:49:53.539Z,5.30
2022-09-03T09:52:25.911Z,7.05
2022-09-03T09:54:55.167Z,4.10
2022-09-03T09:57:25.431Z,4.50
2022-09-03T10:00:12.982Z,5.75
2022-09-03T10:02:47.509Z,5.72
2022-09-03T10:05:28.197Z,4.93
2022-09-03T10:08:00.987Z,4.60
2022-09-03T10:10:35.213Z,4.13
2022-09-03T10:13:11.400Z,4.50
2022-09-03T10:16:14.480Z,4.25
2022-09-03T10:21:47.775Z,3.40
2022-09-03T10:24:25.536Z,4.90
2022-09-03T10:27:08.547Z,3.85
2022-09-03T10:30:01.020Z,3.45
2022-09-03T10:32:47.781Z,2.75
2022-09-03T10:35:29.555Z,2.55
2022-09-03T10:38:18.142Z,2.63
2022-09-03T10:41:05.896Z,3.88
2022-09-03T10:44:01.675Z,3.17
2022-09-03T10:46:57.710Z,2.03
2022-09-03T10:49:46.315Z,2.25
2022-09-03T10:52:27.126Z,26.67
2022-09-03T10:55:12.550Z,3.90
2022-09-03T10:57:57.767Z,3.30
2022-09-03T11:00:26.323Z,3.90
2022-09-03T11:03:21.364Z,4.20
2022-09-03T11:06:12.439Z,2.67
2022-09-03T11:08:44.871Z,2.13
2022-09-03T11:11:20.370Z,1.50
2022-09-03T11:13:52.000Z,1.95
2022-09-03T11:16:26.006Z,2.07
2022-09-03T11:19:02.830Z,2.10
2022-09-03T11:21:32.177Z,2.88
2022-09-03T11:24:13.762Z,2.20
2022-09-03T11:26:45.002Z,2.00
2022-09-03T11:29:25.635Z,2.15
2022-09-03T11:32:21.976Z,2.05
2022-09-03T11:34:54.829Z,2.13
2022-09-03T11:37:26.751Z,2.90
2022-09-03T11:40:04.749Z,2.05
2022-09-03T11:42:41.782Z,2.13
2022-09-03T11:45:26.933Z,1.75
2022-09-03T11:47:54.475Z,2.50
2022-09-03T11:50:26.936Z,1.52
2022-09-03T11:55:55.625Z,1.92
2022-09-03T11:58:34.795Z,2.08
2022-09-03T12:01:04.557Z,2.17
2022-09-03T12:03:49.292Z,1.63
2022-09-03T12:06:38.445Z,2.65
2022-09-03T12:09:28.793Z,1.85
2022-09-03T12:12:19.654Z,1.35
2022-09-03T12:15:16.719Z,0.95
2022-09-03T12:18:20.562Z,1.92
2022-09-03T12:20:54.161Z,0.93
2022-09-03T12:23:51.923Z,0.90
2022-09-03T12:26:27.678Z,1.08
2022-09-03T12:28:59.834Z,1.10
2022-09-03T12:31:30.369Z,1.00
2022-09-03T12:34:01.243Z,1.02
2022-09-03T12:36:42.941Z,1.15
2022-09-03T12:42:20.903Z,0.80
2022-09-03T12:44:47.823Z,0.98
2022-09-03T12:47:37.400Z,1.13
2022-09-03T12:50:17.023Z,1.25
2022-09-03T12:53:00.099Z,1.25
2022-09-03T12:55:42.551Z,0.90
2022-09-03T12:58:15.604Z,1.00
2022-09-03T13:00:57.414Z,1.98
2022-09-03T13:03:38.914Z,2.07
2022-09-03T13:06:11.483Z,1.80
2022-09-03T13:11:25.307Z,1.73
2022-09-03T13:13:57.176Z,1.58
2022-09-03T13:16:39.296Z,1.73
2022-09-03T13:19:16.622Z,2.15
2022-09-03T13:21:49.098Z,2.45
2022-09-03T13:27:10.594Z,2.40
2022-09-03T13:30:06.032Z,2.65
2022-09-03T13:32:38.379Z,2.30
2022-09-03T13:35:40.335Z,2.58
2022-09-03T13:38:09.939Z,2.58
2022-09-03T13:40:46.888Z,1.88
2022-09-03T13:43:36.576Z,2.15
2022-09-03T13:46:08.858Z,2.78
2022-09-03T13:49:04.518Z,2.30
2022-09-03T13:51:43.957Z,2.03
2022-09-03T13:54:49.540Z,2.03
2022-09-03T13:57:22.720Z,1.80
2022-09-03T14:00:00.353Z,2.20
2022-09-03T14:02:29.061Z,2.50
2022-09-03T14:05:04.370Z,1.70
2022-09-03T14:08:08.638Z,2.53
2022-09-03T14:10:38.440Z,2.28
2022-09-03T14:13:18.106Z,2.33
2022-09-03T14:16:20.057Z,2.28
2022-09-03T14:18:59.837Z,1.90
2022-09-03T14:21:33.604Z,2.58
2022-09-03T14:24:12.391Z,2.90
2022-09-03T14:26:52.237Z,2.90
2022-09-03T14:29:24.918Z,2.92
2022-09-03T14:32:03.886Z,2.50
2022-09-03T14:34:35.706Z,2.00
2022-09-03T14:37:28.892Z,1.50
2022-09-03T14:40:02.146Z,1.60
2022-09-03T14:42:47.314Z,1.73
2022-09-03T14:45:47.697Z,1.95
2022-09-03T14:48:51.966Z,2.15
2022-09-03T14:51:56.214Z,1.92
2022-09-03T14:55:10.573Z,2.00
2022-09-03T14:58:18.345Z,1.33
2022-09-03T15:01:01.812Z,1.40
2022-09-03T15:03:50.597Z,1.20
2022-09-03T15:06:32.425Z,1.20
2022-09-03T15:09:19.187Z,1.60
2022-09-03T15:12:08.319Z,1.35
2022-09-03T15:14:54.464Z,1.35
2022-09-03T15:17:49.275Z,1.75
2022-09-03T15:20:31.599Z,1.50
2022-09-03T15:23:13.505Z,1.40
2022-09-03T15:26:24.945Z,1.50
2022-09-03T15:29:11.634Z,1.42
2022-09-03T15:31:44.870Z,1.75
2022-09-03T15:34:14.528Z,1.83
2022-09-03T15:36:49.781Z,1.73
2022-09-03T15:39:27.040Z,2.00
2022-09-03T15:41:59.282Z,1.88
2022-09-03T15:44:31.764Z,1.65
2022-09-03T15:50:05.341Z,1.92
2022-09-03T15:52:47.338Z,2.45
2022-09-03T15:55:39.435Z,2.10
2022-09-03T15:58:19.018Z,2.38
2022-09-03T16:01:03.302Z,4.13
2022-09-03T16:03:46.464Z,2.63
2022-09-03T16:06:48.104Z,2.65
2022-09-03T16:10:22.827Z,2.65
2022-09-03T16:13:16.789Z,2.92
2022-09-03T16:16:21.812Z,3.75
2022-09-03T16:19:32.211Z,3.83
2022-09-03T16:22:01.137Z,3.33
2022-09-03T16:25:13.463Z,3.60
2022-09-03T16:28:16.000Z,3.28
2022-09-03T16:31:36.559Z,3.53
2022-09-03T16:34:56.472Z,3.38
2022-09-03T16:38:09.440Z,2.92
2022-09-03T16:41:19.230Z,3.65
2022-09-03T16:44:27.204Z,3.17
2022-09-03T16:47:55.781Z,4.15
2022-09-03T16:51:19.605Z,3.53
2022-09-03T16:54:33.274Z,3.20
2022-09-03T16:57:26.847Z,3.40
2022-09-03T17:00:29.670Z,3.30
2022-09-03T17:03:32.039Z,3.85
2022-09-03T17:06:38.050Z,3.57
2022-09-03T17:09:14.477Z,3.05
2022-09-03T17:12:06.810Z,2.10
2022-09-03T17:14:46.839Z,2.70
2022-09-03T17:17:47.715Z,3.35
2022-09-03T17:20:48.545Z,3.75
2022-09-03T17:23:44.073Z,3.10
2022-09-03T17:26:21.384Z,2.70
2022-09-03T17:29:16.629Z,2.63
2022-09-03T17:31:51.842Z,2.67
2022-09-03T17:34:36.447Z,3.30
2022-09-03T17:37:33.575Z,3.33
2022-09-03T17:40:28.266Z,3.22
2022-09-03T17:43:10.306Z,3.28
2022-09-03T17:45:57.350Z,2.72
2022-09-03T17:48:52.470Z,2.85
2022-09-03T17:51:22.207Z,3.10
2022-09-03T17:54:07.711Z,2.85
2022-09-03T17:56:46.022Z,3.13
2022-09-03T17:59:22.430Z,3.00
2022-09-03T18:01:59.217Z,2.42
2022-09-03T18:04:47.096Z,3.35
2022-09-03T18:07:25.656Z,3.15
2022-09-03T18:10:02.335Z,3.35
2022-09-03T18:12:59.842Z,3.38
2022-09-03T18:15:39.619Z,4.22
2022-09-03T18:18:13.064Z,5.45
2022-09-03T18:21:23.986Z,3.78
2022-09-03T18:24:26.426Z,4.45
2022-09-03T18:27:18.458Z,4.07
2022-09-03T18:30:21.361Z,3.60
2022-09-03T18:33:07.229Z,3.70
2022-09-03T18:35:53.495Z,4.10
2022-09-03T18:38:47.703Z,3.70
2022-09-03T18:41:51.762Z,3.58
2022-09-03T18:44:48.333Z,3.75
2022-09-03T18:48:02.093Z,4.05
2022-09-03T18:51:06.575Z,4.50
2022-09-03T18:54:11.246Z,4.40
2022-09-03T18:57:05.897Z,4.32
2022-09-03T19:00:15.980Z,3.88
2022-09-03T19:03:19.506Z,4.30
2022-09-03T19:06:34.031Z,4.18
2022-09-03T19:09:38.685Z,4.47
2022-09-03T19:12:50.087Z,4.13
2022-09-03T19:15:48.253Z,4.45
2022-09-03T19:18:54.474Z,4.20
2022-09-03T19:22:07.533Z,3.90
2022-09-03T19:24:53.159Z,4.75
2022-09-03T19:27:55.592Z,3.78
2022-09-03T19:31:19.171Z,3.78
2022-09-03T19:34:23.444Z,4.30
2022-09-03T19:37:31.939Z,5.00
2022-09-03T19:40:43.468Z,3.97
2022-09-03T19:43:36.209Z,3.97
2022-09-03T19:46:49.257Z,3.63
2022-09-03T19:50:11.862Z,3.45
2022-09-03T19:53:12.337Z,2.78
2022-09-03T19:56:07.158Z,3.97
2022-09-03T19:58:57.738Z,4.13
2022-09-03T20:01:48.493Z,3.65
2022-09-03T20:04:34.704Z,3.35
2022-09-03T20:07:23.768Z,3.83
2022-09-03T20:10:12.847Z,3.17
2022-09-03T20:12:45.688Z,3.45
2022-09-03T20:15:12.540Z,3.58
2022-09-03T20:18:07.032Z,4.20
2022-09-03T20:20:59.901Z,4.10
2022-09-03T20:23:46.974Z,3.33
2022-09-03T20:26:33.312Z,3.13
2022-09-03T20:29:32.657Z,3.13
2022-09-03T20:32:05.334Z,3.33
2022-09-03T20:34:47.287Z,3.85
2022-09-03T20:37:27.799Z,3.20
2022-09-03T20:40:12.527Z,2.75
2022-09-03T20:42:51.195Z,3.40
2022-09-03T20:45:42.406Z,2.90
2022-09-03T20:51:12.422Z,3.75
2022-09-03T20:53:55.086Z,3.30
2022-09-03T20:56:33.983Z,3.85
2022-09-03T20:59:12.008Z,2.97
2022-09-03T21:01:53.768Z,3.20
2022-09-03T21:04:39.862Z,2.97
2022-09-03T21:07:28.508Z,2.63
2022-09-03T21:10:06.669Z,3.10
2022-09-03T21:12:57.807Z,2.72
2022-09-03T21:15:24.636Z,3.58
2022-09-03T21:18:31.370Z,2.95
2022-09-03T21:21:09.940Z,3.42
2022-09-03T21:24:06.810Z,3.50
2022-09-03T21:26:42.085Z,3.30
2022-09-03T21:29:22.181Z,3.10
2022-09-03T21:32:07.861Z,3.75
2022-09-03T21:34:42.358Z,3.60
2022-09-03T21:37:12.883Z,2.97
2022-09-03T21:39:49.631Z,2.72
2022-09-03T21:42:31.667Z,3.38
2022-09-03T21:45:08.650Z,3.88
2022-09-03T21:47:45.127Z,3.78
2022-09-03T21:50:18.988Z,3.03
2022-09-03T21:53:03.257Z,3.95
2022-09-03T21:55:32.750Z,5.30
2022-09-03T21:58:35.949Z,4.03
2022-09-03T22:03:37.655Z,4.15
2022-09-03T22:06:13.952Z,3.90
2022-09-03T22:08:42.226Z,4.63
2022-09-03T22:11:39.905Z,4.95
2022-09-03T22:14:18.051Z,3.70
2022-09-03T22:17:03.019Z,4.15
2022-09-03T22:19:37.552Z,4.90
2022-09-03T22:22:12.931Z,4.45
2022-09-03T22:24:49.906Z,3.60
2022-09-03T22:27:22.674Z,3.85
2022-09-03T22:30:11.499Z,4.93
2022-09-03T22:32:57.310Z,3.70
2022-09-03T22:35:46.678Z,4.40
2022-09-03T22:38:39.323Z,4.05
2022-09-03T22:41:21.251Z,3.80
2022-09-03T22:44:12.667Z,4.23
2022-09-03T22:47:11.739Z,4.85
2022-09-03T22:50:03.800Z,4.45
2022-09-03T22:52:41.313Z,4.25
2022-09-03T22:55:26.891Z,4.50
2022-09-03T22:58:25.313Z,4.40
2022-09-03T23:01:15.155Z,4.22
2022-09-03T23:03:49.649Z,4.32
2022-09-03T23:06:32.650Z,5.10
2022-09-03T23:09:04.578Z,4.18
2022-09-03T23:11:38.721Z,4.68
2022-09-03T23:14:08.413Z,4.20
2022-09-03T23:17:06.248Z,4.22
2022-09-03T23:19:41.140Z,5.20
2022-09-03T23:22:13.801Z,4.18
2022-09-03T23:27:18.457Z,5.28
2022-09-03T23:29:50.528Z,4.93
2022-09-03T23:32:17.346Z,4.35
2022-09-03T23:34:44.179Z,4.05
2022-09-03T23:37:35.309Z,4.63
2022-09-03T23:40:30.530Z,4.68
2022-09-03T23:43:09.331Z,4.60
2022-09-03T23:46:00.985Z,4.15
2022-09-03T23:48:37.917Z,3.97
2022-09-03T23:51:28.444Z,4.43
2022-09-03T23:54:25.943Z,4.32
2022-09-03T23:57:01.030Z,4.60
2022-09-03T23:59:33.822Z,4.80
